createdAt,value
2019-03-01T00:01:18.403Z,24.53
2019-03-01T00:04:11.899Z,22.97
2019-03-01T00:06:52.326Z,22.80
2019-03-01T00:10:03.874Z,23.63
2019-03-01T00:12:53.667Z,23.30
2019-03-01T00:15:54.277Z,21.17
2019-03-01T00:18:54.148Z,20.80
2019-03-01T00:22:08.841Z,21.60
2019-03-01T00:24:54.494Z,20.07
2019-03-01T00:28:14.732Z,20.23
2019-03-01T00:31:13.506Z,19.87
2019-03-01T00:34:34.195Z,19.50
2019-03-01T00:37:51.098Z,19.97
2019-03-01T00:40:59.299Z,18.03
2019-03-01T00:43:45.642Z,18.10
2019-03-01T00:46:17.736Z,18.57
2019-03-01T00:48:49.998Z,17.50
2019-03-01T00:51:22.370Z,18.30
2019-03-01T00:53:54.700Z,19.50
2019-03-01T00:56:26.992Z,17.37
2019-03-01T00:58:59.618Z,18.50
2019-03-01T01:01:31.966Z,19.53
2019-03-01T01:04:04.335Z,18.70
2019-03-01T01:06:36.509Z,18.37
2019-03-01T01:09:09.148Z,17.93
2019-03-01T01:11:41.314Z,18.10
2019-03-01T01:14:13.683Z,20.20
2019-03-01T01:16:46.206Z,19.83
2019-03-01T01:19:18.429Z,22.17
2019-03-01T01:21:50.699Z,23.83
2019-03-01T01:24:23.028Z,22.13
2019-03-01T01:26:55.442Z,22.20
2019-03-01T01:29:27.530Z,24.20
2019-03-01T01:31:59.888Z,26.37
2019-03-01T01:34:32.098Z,26.67
2019-03-01T01:37:04.334Z,24.73
2019-03-01T01:39:36.437Z,26.10
2019-03-01T01:42:08.779Z,26.47
2019-03-01T01:44:40.974Z,27.13
2019-03-01T01:47:13.358Z,25.47
2019-03-01T01:49:46.925Z,25.93
2019-03-01T01:52:19.297Z,25.33
2019-03-01T01:54:51.604Z,25.53
2019-03-01T01:57:23.833Z,24.33
2019-03-01T01:59:56.782Z,25.70
2019-03-01T02:02:29.449Z,25.03
2019-03-01T02:05:01.938Z,24.07
2019-03-01T02:07:34.266Z,25.13
2019-03-01T02:10:07.090Z,25.27
2019-03-01T02:12:39.336Z,25.30
2019-03-01T02:15:12.665Z,25.87
2019-03-01T02:17:45.311Z,25.03
2019-03-01T02:20:17.949Z,23.87
2019-03-01T02:22:50.400Z,25.57
2019-03-01T02:25:22.967Z,25.70
2019-03-01T02:27:55.160Z,24.27
2019-03-01T02:30:27.430Z,25.13
2019-03-01T02:33:00.028Z,25.80
2019-03-01T02:35:32.281Z,24.97
2019-03-01T02:38:04.623Z,25.23
2019-03-01T02:40:37.017Z,24.00
2019-03-01T02:43:09.413Z,24.83
2019-03-01T02:45:41.862Z,24.70
2019-03-01T02:48:14.150Z,23.70
2019-03-01T02:50:46.499Z,24.47
2019-03-01T02:53:18.653Z,25.57
2019-03-01T02:55:50.991Z,25.27
2019-03-01T02:58:23.243Z,23.50
2019-03-01T03:00:55.558Z,24.13
2019-03-01T03:03:28.229Z,24.60
2019-03-01T03:06:25.954Z,24.57
2019-03-01T03:08:58.514Z,23.40
2019-03-01T03:11:30.993Z,24.07
2019-03-01T03:14:03.365Z,22.20
2019-03-01T03:16:35.649Z,26.37
2019-03-01T03:19:08.051Z,25.17
2019-03-01T03:21:40.481Z,24.43
2019-03-01T03:24:12.656Z,25.77
2019-03-01T03:26:45.167Z,25.30
2019-03-01T03:29:17.263Z,25.43
2019-03-01T03:31:49.498Z,24.03
2019-03-01T03:34:21.646Z,25.67
2019-03-01T03:36:53.990Z,25.70
2019-03-01T03:39:26.107Z,24.60
2019-03-01T03:41:58.252Z,26.07
2019-03-01T03:44:30.661Z,25.03
2019-03-01T03:47:03.013Z,25.43
2019-03-01T03:49:35.301Z,25.13
2019-03-01T03:52:07.981Z,27.00
2019-03-01T03:54:40.227Z,22.83
2019-03-01T03:57:12.467Z,24.80
2019-03-01T03:59:44.768Z,24.47
2019-03-01T04:02:16.986Z,24.23
2019-03-01T04:04:49.280Z,25.43
2019-03-01T04:07:21.789Z,24.43
2019-03-01T04:09:53.971Z,24.77
2019-03-01T04:12:26.387Z,25.33
2019-03-01T04:14:58.965Z,25.83
2019-03-01T04:17:31.199Z,25.03
2019-03-01T04:20:04.804Z,26.20
2019-03-01T04:22:37.031Z,25.10
2019-03-01T04:25:09.504Z,25.23
2019-03-01T04:27:42.051Z,24.87
2019-03-01T04:30:15.141Z,23.93
2019-03-01T04:32:47.302Z,24.07
2019-03-01T04:35:19.746Z,24.43
2019-03-01T04:37:51.934Z,23.53
2019-03-01T04:40:24.886Z,25.40
2019-03-01T04:42:57.177Z,24.13
2019-03-01T04:45:29.805Z,25.83
2019-03-01T04:48:02.284Z,25.67
2019-03-01T04:50:34.554Z,23.57
2019-03-01T04:53:07.024Z,25.03
2019-03-01T04:55:39.514Z,25.83
2019-03-01T04:58:11.720Z,26.03
2019-03-01T05:00:44.343Z,24.77
2019-03-01T05:03:17.137Z,26.77
2019-03-01T05:05:49.445Z,26.50
2019-03-01T05:08:21.765Z,25.83
2019-03-01T05:10:53.985Z,25.73
2019-03-01T05:13:26.184Z,26.07
2019-03-01T05:15:58.805Z,26.37
2019-03-01T05:18:30.916Z,24.20
2019-03-01T05:21:03.265Z,26.37
2019-03-01T05:23:35.453Z,24.97
2019-03-01T05:26:07.706Z,26.37
2019-03-01T05:28:40.128Z,26.30
2019-03-01T05:31:12.449Z,27.23
2019-03-01T05:33:44.682Z,26.60
2019-03-01T05:36:17.020Z,25.17
2019-03-01T05:38:49.097Z,26.00
2019-03-01T05:41:21.605Z,29.53
2019-03-01T05:43:54.060Z,29.87
2019-03-01T05:46:26.448Z,32.30
2019-03-01T05:48:58.652Z,29.33
2019-03-01T05:51:31.305Z,28.60
2019-03-01T05:54:03.602Z,29.07
2019-03-01T05:56:36.209Z,28.03
2019-03-01T05:59:20.219Z,28.40
2019-03-01T06:02:01.943Z,29.03
2019-03-01T06:04:47.339Z,29.37
2019-03-01T06:07:28.051Z,29.33
2019-03-01T06:10:11.262Z,28.77
2019-03-01T06:13:05.056Z,29.03
2019-03-01T06:15:52.636Z,29.97
2019-03-01T06:19:24.814Z,31.20
2019-03-01T06:22:54.095Z,32.27
2019-03-01T06:25:45.720Z,34.50
2019-03-01T06:28:46.247Z,32.70
2019-03-01T06:31:50.317Z,32.33
2019-03-01T06:34:54.873Z,31.30
2019-03-01T06:38:40.157Z,31.20
2019-03-01T06:41:35.886Z,31.93
2019-03-01T06:45:01.903Z,31.80
2019-03-01T06:47:41.681Z,30.70
2019-03-01T06:50:16.031Z,31.60
2019-03-01T06:52:48.717Z,32.20
2019-03-01T06:55:50.061Z,33.90
2019-03-01T06:58:27.325Z,32.13
2019-03-01T07:01:11.587Z,33.00
2019-03-01T07:03:46.883Z,32.20
2019-03-01T07:06:19.200Z,31.23
2019-03-01T07:08:51.694Z,30.37
2019-03-01T07:11:23.922Z,30.87
2019-03-01T07:13:56.343Z,32.83
2019-03-01T07:16:28.742Z,31.83
2019-03-01T07:19:01.574Z,29.87
2019-03-01T07:21:33.922Z,28.57
2019-03-01T07:24:06.246Z,28.47
2019-03-01T07:26:38.649Z,28.17
2019-03-01T07:29:10.786Z,28.20
2019-03-01T07:31:43.289Z,30.70
2019-03-01T07:34:16.354Z,30.93
2019-03-01T07:36:49.824Z,29.13
2019-03-01T07:39:21.934Z,29.57
2019-03-01T07:41:54.517Z,27.43
2019-03-01T07:44:26.906Z,28.63
2019-03-01T07:46:59.043Z,26.77
2019-03-01T07:49:31.557Z,28.43
2019-03-01T07:52:04.928Z,30.57
2019-03-01T07:54:37.900Z,27.80
2019-03-01T07:57:11.437Z,29.80
2019-03-01T07:59:44.348Z,28.93
2019-03-01T08:02:16.581Z,28.07
2019-03-01T08:04:48.827Z,30.23
2019-03-01T08:07:23.520Z,31.23
2019-03-01T08:09:55.326Z,32.27
2019-03-01T08:12:27.488Z,29.93
2019-03-01T08:15:00.137Z,29.63
2019-03-01T08:17:32.742Z,31.53
2019-03-01T08:20:07.484Z,30.83
2019-03-01T08:22:47.981Z,33.73
2019-03-01T08:25:15.009Z,32.40
2019-03-01T08:27:48.513Z,30.43
2019-03-01T08:30:21.679Z,31.53
2019-03-01T08:32:59.250Z,32.40
2019-03-01T08:35:34.427Z,32.20
2019-03-01T08:38:06.698Z,32.40
2019-03-01T08:40:38.874Z,34.53
2019-03-01T08:43:12.995Z,33.27
2019-03-01T08:45:45.940Z,33.37
2019-03-01T08:48:18.720Z,34.33
2019-03-01T08:50:51.582Z,34.33
2019-03-01T08:53:25.966Z,36.60
2019-03-01T08:55:58.298Z,33.10
2019-03-01T08:58:31.386Z,34.50
2019-03-01T09:01:08.342Z,35.27
2019-03-01T09:03:43.215Z,35.17
2019-03-01T09:06:15.707Z,35.43
2019-03-01T09:08:48.375Z,35.83
2019-03-01T09:11:21.013Z,36.97
2019-03-01T09:13:53.131Z,36.00
2019-03-01T09:16:25.385Z,37.37
2019-03-01T09:18:57.698Z,35.40
2019-03-01T09:21:29.968Z,35.30
2019-03-01T09:24:02.515Z,38.50
2019-03-01T09:26:35.697Z,34.43
2019-03-01T09:29:08.544Z,34.83
2019-03-01T09:31:40.913Z,35.27
2019-03-01T09:34:13.410Z,34.77
2019-03-01T09:36:54.935Z,36.80
2019-03-01T09:39:25.856Z,34.33
2019-03-01T09:42:03.233Z,34.20
2019-03-01T09:44:34.698Z,35.37
2019-03-01T09:47:06.853Z,34.93
2019-03-01T09:49:39.149Z,35.27
2019-03-01T09:52:11.392Z,37.23
2019-03-01T09:54:43.548Z,34.40
2019-03-01T09:57:16.479Z,37.87
2019-03-01T09:59:49.056Z,37.87
2019-03-01T10:02:21.477Z,37.73
2019-03-01T10:04:53.966Z,38.13
2019-03-01T10:07:26.409Z,39.70
2019-03-01T10:09:58.582Z,37.40
2019-03-01T10:12:31.377Z,39.77
2019-03-01T10:15:04.563Z,38.90
2019-03-01T10:17:37.116Z,37.60
2019-03-01T10:20:10.916Z,39.97
2019-03-01T10:22:43.459Z,37.57
2019-03-01T10:25:16.078Z,36.93
2019-03-01T10:27:48.390Z,38.23
2019-03-01T10:30:20.847Z,38.70
2019-03-01T10:32:53.472Z,38.40
2019-03-01T10:35:26.058Z,38.30
2019-03-01T10:37:58.292Z,39.27
2019-03-01T10:40:30.746Z,39.03
2019-03-01T10:43:03.408Z,39.33
2019-03-01T10:45:36.025Z,38.00
2019-03-01T10:48:08.828Z,41.80
2019-03-01T10:50:41.148Z,40.13
2019-03-01T10:53:13.409Z,39.83
2019-03-01T10:55:46.027Z,37.97
2019-03-01T10:58:18.365Z,40.90
2019-03-01T11:00:50.704Z,37.17
2019-03-01T11:03:23.685Z,39.07
2019-03-01T11:05:56.193Z,32.40
2019-03-01T11:08:28.677Z,37.97
2019-03-01T11:11:01.163Z,35.53
2019-03-01T11:13:33.506Z,36.30
2019-03-01T11:16:05.790Z,36.40
2019-03-01T11:18:38.267Z,35.20
2019-03-01T11:21:10.388Z,33.47
2019-03-01T11:23:42.859Z,36.87
2019-03-01T11:26:14.992Z,34.93
2019-03-01T11:28:50.768Z,33.23
2019-03-01T11:31:22.951Z,34.43
2019-03-01T11:33:55.336Z,34.67
2019-03-01T11:36:27.875Z,35.67
2019-03-01T11:39:00.046Z,31.93
2019-03-01T11:41:32.466Z,34.57
2019-03-01T11:44:05.157Z,33.93
2019-03-01T11:46:37.374Z,32.60
2019-03-01T11:49:09.788Z,33.23
2019-03-01T11:51:42.028Z,31.83
2019-03-01T11:54:14.293Z,29.37
2019-03-01T11:56:46.859Z,30.30
2019-03-01T11:59:19.175Z,30.30
2019-03-01T12:01:52.528Z,29.73
2019-03-01T12:04:24.892Z,30.10
2019-03-01T12:06:57.516Z,29.93
2019-03-01T12:09:29.662Z,30.30
2019-03-01T12:12:02.720Z,31.10
2019-03-01T12:14:35.529Z,31.07
2019-03-01T12:17:08.279Z,28.83
2019-03-01T12:19:55.099Z,29.00
2019-03-01T12:22:37.043Z,27.50
2019-03-01T12:25:10.516Z,24.97
2019-03-01T12:27:43.245Z,24.97
2019-03-01T12:30:17.979Z,24.97
2019-03-01T12:32:54.385Z,24.53
2019-03-01T12:35:27.896Z,24.87
2019-03-01T12:38:00.209Z,26.17
2019-03-01T12:40:33.024Z,24.60
2019-03-01T12:43:06.203Z,23.80
2019-03-01T12:45:38.533Z,23.27
2019-03-01T12:48:10.719Z,21.90
2019-03-01T12:50:43.127Z,22.23
2019-03-01T12:53:15.241Z,24.20
2019-03-01T12:55:47.533Z,25.07
2019-03-01T12:58:19.871Z,20.40
2019-03-01T13:00:51.992Z,17.67
2019-03-01T13:03:24.180Z,17.43
2019-03-01T13:05:56.945Z,16.93
2019-03-01T13:08:29.205Z,15.23
2019-03-01T13:11:01.448Z,14.90
2019-03-01T13:13:34.688Z,14.43
2019-03-01T13:16:07.850Z,14.37
2019-03-01T13:18:40.117Z,13.10
2019-03-01T13:21:13.087Z,12.40
2019-03-01T13:23:45.922Z,11.93
2019-03-01T13:26:18.597Z,10.80
2019-03-01T13:28:50.837Z,9.27
2019-03-01T13:31:23.087Z,12.90
2019-03-01T13:33:55.266Z,12.10
2019-03-01T13:36:27.758Z,13.10
2019-03-01T13:39:00.052Z,11.90
2019-03-01T13:41:34.039Z,12.37
2019-03-01T13:44:06.532Z,12.00
2019-03-01T13:46:38.968Z,11.17
2019-03-01T13:49:11.100Z,11.07
2019-03-01T13:51:44.073Z,10.53
2019-03-01T13:54:16.275Z,11.17
2019-03-01T13:56:50.817Z,11.23
2019-03-01T13:59:23.031Z,10.27
2019-03-01T14:01:56.676Z,11.00
2019-03-01T14:04:28.853Z,10.23
2019-03-01T14:07:01.164Z,9.63
2019-03-01T14:09:34.494Z,9.57
2019-03-01T14:12:06.880Z,8.40
2019-03-01T14:14:39.296Z,10.13
2019-03-01T14:17:12.062Z,9.70
2019-03-01T14:19:44.160Z,8.97
2019-03-01T14:22:16.443Z,8.63
2019-03-01T14:24:48.640Z,7.77
2019-03-01T14:27:21.143Z,9.97
2019-03-01T14:29:53.789Z,9.87
2019-03-01T14:32:26.545Z,7.90
2019-03-01T14:34:59.340Z,8.50
2019-03-01T14:37:32.569Z,8.43
2019-03-01T14:40:06.263Z,8.13
2019-03-01T14:42:39.062Z,7.53
2019-03-01T14:45:14.430Z,8.10
2019-03-01T14:47:47.032Z,7.93
2019-03-01T14:50:20.595Z,7.33
2019-03-01T14:52:56.762Z,6.83
2019-03-01T14:55:36.389Z,7.30
2019-03-01T14:58:18.986Z,7.33
2019-03-01T15:01:03.046Z,6.77
2019-03-01T15:03:37.356Z,6.93
2019-03-01T15:06:09.741Z,7.63
2019-03-01T15:08:44.121Z,6.83
2019-03-01T15:11:18.844Z,6.40
2019-03-01T15:13:55.408Z,7.83
2019-03-01T15:16:27.984Z,6.07
2019-03-01T15:19:00.386Z,3.27
2019-03-01T15:21:34.112Z,7.03
2019-03-01T15:24:06.799Z,6.67
2019-03-01T15:26:39.374Z,6.53
2019-03-01T15:29:11.868Z,6.73
2019-03-01T15:31:44.070Z,7.00
2019-03-01T15:34:16.339Z,6.70
2019-03-01T15:36:48.760Z,5.53
2019-03-01T15:39:21.424Z,6.40
2019-03-01T15:41:53.899Z,6.60
2019-03-01T15:44:26.688Z,6.80
2019-03-01T15:46:59.127Z,6.30
2019-03-01T15:49:32.055Z,5.67
2019-03-01T15:52:04.450Z,5.70
2019-03-01T15:54:36.815Z,6.13
2019-03-01T15:57:09.108Z,6.33
2019-03-01T15:59:44.355Z,6.87
2019-03-01T16:02:15.795Z,6.87
2019-03-01T16:04:48.706Z,6.53
2019-03-01T16:07:21.472Z,6.53
2019-03-01T16:09:54.308Z,7.13
2019-03-01T16:12:28.970Z,7.60
2019-03-01T16:15:01.574Z,4.53
2019-03-01T16:17:34.045Z,5.90
2019-03-01T16:20:09.221Z,6.83
2019-03-01T16:22:41.542Z,6.03
2019-03-01T16:25:13.943Z,7.30
2019-03-01T16:27:46.809Z,7.20
2019-03-01T16:30:19.325Z,7.40
2019-03-01T16:32:51.892Z,6.97
2019-03-01T16:35:24.713Z,5.57
2019-03-01T16:38:01.145Z,7.40
2019-03-01T16:40:32.088Z,7.00
2019-03-01T16:43:04.408Z,7.27
2019-03-01T16:45:36.731Z,6.77
2019-03-01T16:48:08.951Z,6.80
2019-03-01T16:50:44.020Z,6.80
2019-03-01T16:53:15.691Z,6.83
2019-03-01T16:55:49.319Z,6.93
2019-03-01T16:58:24.494Z,6.70
2019-03-01T17:00:55.757Z,7.10
2019-03-01T17:03:28.308Z,9.27
2019-03-01T17:06:00.391Z,8.57
2019-03-01T17:08:32.812Z,8.07
2019-03-01T17:11:05.870Z,8.40
2019-03-01T17:13:38.811Z,5.80
2019-03-01T17:16:11.387Z,6.80
2019-03-01T17:18:44.562Z,6.40
2019-03-01T17:21:18.138Z,7.63
2019-03-01T17:23:50.378Z,7.03
2019-03-01T17:26:26.312Z,8.00
2019-03-01T17:28:59.748Z,7.33
2019-03-01T17:31:31.661Z,7.70
2019-03-01T17:34:04.543Z,7.37
2019-03-01T17:36:37.731Z,8.27
2019-03-01T17:39:13.356Z,8.40
2019-03-01T17:41:48.249Z,8.73
2019-03-01T17:44:20.459Z,7.33
2019-03-01T17:46:52.657Z,8.07
2019-03-01T17:49:25.529Z,8.70
2019-03-01T17:51:57.900Z,7.63
2019-03-01T17:54:30.250Z,8.07
2019-03-01T17:57:02.618Z,7.90
2019-03-01T17:59:35.128Z,7.10
2019-03-01T18:02:07.546Z,7.37
2019-03-01T18:04:39.866Z,7.60
2019-03-01T18:07:12.310Z,8.07
2019-03-01T18:09:44.805Z,7.30
2019-03-01T18:12:17.491Z,7.67
2019-03-01T18:14:51.677Z,8.53
2019-03-01T18:17:24.169Z,7.13
2019-03-01T18:19:58.777Z,7.07
2019-03-01T18:22:30.660Z,7.53
2019-03-01T18:25:03.645Z,6.80
2019-03-01T18:27:36.316Z,7.33
2019-03-01T18:30:15.991Z,5.43
2019-03-01T18:32:47.087Z,4.50
2019-03-01T18:35:19.638Z,5.80
2019-03-01T18:37:55.086Z,6.37
2019-03-01T18:40:25.905Z,6.33
2019-03-01T18:42:58.764Z,6.70
2019-03-01T18:45:30.971Z,6.93
2019-03-01T18:48:05.020Z,5.53
2019-03-01T18:50:37.636Z,5.37
2019-03-01T18:53:09.834Z,4.90
2019-03-01T18:55:42.256Z,6.30
2019-03-01T18:58:14.987Z,4.70
2019-03-01T19:00:47.487Z,5.40
2019-03-01T19:03:19.752Z,5.20
2019-03-01T19:05:52.176Z,5.03
2019-03-01T19:08:24.500Z,5.23
2019-03-01T19:10:59.748Z,5.47
2019-03-01T19:13:31.169Z,3.80
2019-03-01T19:16:03.579Z,5.17
2019-03-01T19:18:35.741Z,5.53
2019-03-01T19:21:08.388Z,4.70
2019-03-01T19:23:40.686Z,3.07
2019-03-01T19:26:13.131Z,5.07
2019-03-01T19:28:45.646Z,5.00
2019-03-01T19:31:17.796Z,5.60
2019-03-01T19:33:50.171Z,5.80
2019-03-01T19:36:22.312Z,4.70
2019-03-01T19:38:56.782Z,5.60
2019-03-01T19:41:28.760Z,4.87
2019-03-01T19:44:01.257Z,5.47
2019-03-01T19:46:33.373Z,4.77
2019-03-01T19:49:05.518Z,5.50
2019-03-01T19:51:38.511Z,5.47
2019-03-01T19:54:10.985Z,5.73
2019-03-01T19:56:43.718Z,4.63
2019-03-01T19:59:15.938Z,5.50
2019-03-01T20:01:49.397Z,4.70
2019-03-01T20:04:22.273Z,4.97
2019-03-01T20:06:54.648Z,4.87
2019-03-01T20:09:27.136Z,5.30
2019-03-01T20:12:02.636Z,4.80
2019-03-01T20:14:33.742Z,4.80
2019-03-01T20:17:06.797Z,4.77
2019-03-01T20:19:39.045Z,5.80
2019-03-01T20:22:11.367Z,5.47
2019-03-01T20:24:43.469Z,4.87
2019-03-01T20:27:15.918Z,5.90
2019-03-01T20:29:49.493Z,5.70
2019-03-01T20:32:22.118Z,5.20
2019-03-01T20:34:54.506Z,5.83
2019-03-01T20:37:27.851Z,5.30
2019-03-01T20:40:00.949Z,5.60
2019-03-01T20:42:33.252Z,5.53
2019-03-01T20:45:09.170Z,7.40
2019-03-01T20:47:41.921Z,4.97
2019-03-01T20:50:15.695Z,5.30
2019-03-01T20:52:48.364Z,5.10
2019-03-01T20:55:20.659Z,5.90
2019-03-01T20:57:53.286Z,5.30
2019-03-01T21:00:26.461Z,5.03
2019-03-01T21:02:59.563Z,5.50
2019-03-01T21:05:31.706Z,4.77
2019-03-01T21:08:04.125Z,5.03
2019-03-01T21:10:36.439Z,5.23
2019-03-01T21:13:12.454Z,5.00
2019-03-01T21:15:46.121Z,5.67
2019-03-01T21:18:18.370Z,5.30
2019-03-01T21:20:53.674Z,5.93
2019-03-01T21:23:25.014Z,6.30
2019-03-01T21:25:57.224Z,5.10
2019-03-01T21:28:29.694Z,4.80
2019-03-01T21:31:02.255Z,5.10
2019-03-01T21:33:34.457Z,5.07
2019-03-01T21:36:06.656Z,5.20
2019-03-01T21:38:38.958Z,5.07
2019-03-01T21:41:11.329Z,4.73
2019-03-01T21:43:44.012Z,4.97
2019-03-01T21:46:16.319Z,4.80
2019-03-01T21:48:49.065Z,5.40
2019-03-01T21:51:21.285Z,5.47
2019-03-01T21:53:53.785Z,5.33
2019-03-01T21:56:26.039Z,5.57
2019-03-01T21:58:58.255Z,5.57
2019-03-01T22:01:30.687Z,4.77
2019-03-01T22:04:03.683Z,5.17
2019-03-01T22:06:36.162Z,4.93
2019-03-01T22:09:09.029Z,4.87
2019-03-01T22:11:41.269Z,5.67
2019-03-01T22:14:14.316Z,5.60
2019-03-01T22:16:46.932Z,6.37
2019-03-01T22:19:19.076Z,5.20
2019-03-01T22:21:54.658Z,5.87
2019-03-01T22:24:26.570Z,5.20
2019-03-01T22:26:59.022Z,5.73
2019-03-01T22:29:31.215Z,5.20
2019-03-01T22:32:03.741Z,5.43
2019-03-01T22:34:35.992Z,5.27
2019-03-01T22:37:08.468Z,5.77
2019-03-01T22:39:42.746Z,5.23
2019-03-01T22:42:15.216Z,4.90
2019-03-01T22:44:47.315Z,5.10
2019-03-01T22:47:19.444Z,5.23
2019-03-01T22:49:51.788Z,5.10
2019-03-01T22:52:26.630Z,5.57
2019-03-01T22:55:01.544Z,5.60
2019-03-01T22:57:32.462Z,5.33
2019-03-01T23:00:08.282Z,5.27
2019-03-01T23:02:43.516Z,6.70
2019-03-01T23:05:15.496Z,5.33
2019-03-01T23:07:47.835Z,5.83
2019-03-01T23:10:21.564Z,5.60
2019-03-01T23:12:54.026Z,5.50
2019-03-01T23:15:26.222Z,5.70
2019-03-01T23:17:58.312Z,5.60
2019-03-01T23:20:30.603Z,5.23
2019-03-01T23:23:03.045Z,5.53
2019-03-01T23:25:35.294Z,5.90
2019-03-01T23:28:08.400Z,5.63
2019-03-01T23:30:41.550Z,5.43
2019-03-01T23:33:14.050Z,5.47
2019-03-01T23:35:49.606Z,5.53
2019-03-01T23:38:20.765Z,5.67
2019-03-01T23:40:53.160Z,5.37
2019-03-01T23:43:27.648Z,4.93
2019-03-01T23:45:59.807Z,5.57
2019-03-01T23:48:32.289Z,4.93
2019-03-01T23:51:06.660Z,5.13
2019-03-01T23:53:38.593Z,5.47
2019-03-01T23:56:12.049Z,5.20
2019-03-01T23:58:48.054Z,5.20
